Time;durP1;ratioP1;P1;durP2;ratioP2;P2;SDS_P1;SDS_P2;PMS_P1;PMS_P2;Temp;Humidity;BMP_temperature;BMP_pressure;BME280_temperature;BME280_humidity;BME280_pressure;Samples;Min_cycle;Max_cycle;Signal;HPM_P1;HPM_P2
2024/03/14 00:00:22;;;;;;;14.93;5.97;;;;;;;-1.11;100.00;100190.59;4979200;28;20042;-76
2024/03/14 00:02:48;;;;;;;13.27;6.60;;;;;;;-1.16;100.00;100201.22;4995701;28;20369;-76
2024/03/14 00:05:14;;;;;;;12.30;5.60;;;;;;;-1.18;100.00;100191.75;4978261;28;20053;-76
2024/03/14 00:07:41;;;;;;;12.97;5.87;;;;;;;-1.23;100.00;100197.19;5010479;28;20064;-76
2024/03/14 00:10:09;;;;;;;11.83;5.77;;;;;;;-1.19;100.00;100198.75;4962201;28;20049;-77
2024/03/14 00:12:37;;;;;;;12.90;6.27;;;;;;;-1.21;100.00;100192.75;4962239;28;20058;-76
2024/03/14 00:15:11;;;;;;;13.55;6.15;;;;;;;-1.24;100.00;100186.84;4979017;28;20152;-78
2024/03/14 00:17:44;;;;;;;14.70;7.33;;;;;;;-1.18;100.00;100187.41;4978856;28;20125;-77
2024/03/14 00:20:12;;;;;;;12.37;6.50;;;;;;;-1.28;100.00;100188.75;4977969;28;20062;-77
2024/03/14 00:22:44;;;;;;;13.67;6.97;;;;;;;-1.25;100.00;100177.34;4978961;28;20190;-76
2024/03/14 00:25:12;;;;;;;16.83;6.20;;;;;;;-1.35;100.00;100174.31;5019805;28;20052;-77
2024/03/14 00:27:39;;;;;;;15.30;6.50;;;;;;;-1.39;100.00;100170.16;5002524;28;20076;-76
2024/03/14 00:30:11;;;;;;;12.67;6.43;;;;;;;-1.41;100.00;100160.72;5014275;28;20064;-75
2024/03/14 00:32:40;;;;;;;12.67;6.90;;;;;;;-1.40;100.00;100162.44;5013940;28;20755;-74
2024/03/14 00:35:08;;;;;;;10.47;6.30;;;;;;;-1.52;100.00;100163.81;4951553;29;20059;-74
2024/03/14 00:37:38;;;;;;;12.50;6.35;;;;;;;-1.56;100.00;100164.88;4920841;29;20059;-76
2024/03/14 00:40:08;;;;;;;13.43;6.60;;;;;;;-1.56;100.00;100164.88;4883434;29;20151;-74
2024/03/14 00:42:34;;;;;;;16.60;6.40;;;;;;;-1.61;100.00;100161.63;4843952;29;20527;-76
2024/03/14 00:45:04;;;;;;;14.20;6.57;;;;;;;-1.62;100.00;100153.91;4862609;29;20061;-78
2024/03/14 00:47:32;;;;;;;15.27;6.65;;;;;;;-1.62;100.00;100146.94;4849936;29;20057;-79
2024/03/14 00:50:08;;;;;;;14.70;6.93;;;;;;;-1.74;100.00;100147.50;4847701;29;20484;-79
2024/03/14 00:52:37;;;;;;;16.30;6.60;;;;;;;-1.61;100.00;100151.22;4861257;29;20049;-77
2024/03/14 00:55:06;;;;;;;14.30;6.33;;;;;;;-1.67;100.00;100148.91;4840395;29;20057;-77
2024/03/14 00:57:32;;;;;;;14.60;7.20;;;;;;;-1.73;100.00;100154.38;4887196;29;20120;-78
2024/03/14 00:59:59;;;;;;;14.40;7.77;;;;;;;-1.75;100.00;100164.00;4879044;29;20964;-74
2024/03/14 01:02:26;;;;;;;16.37;7.23;;;;;;;-1.76;100.00;100159.72;4848979;29;20052;-79
2024/03/14 01:04:54;;;;;;;17.93;7.20;;;;;;;-1.74;100.00;100153.53;4880277;29;20428;-80
2024/03/14 01:07:23;;;;;;;12.83;7.00;;;;;;;-1.83;100.00;100147.91;4959441;28;20055;-76
2024/03/14 01:09:50;;;;;;;12.97;6.13;;;;;;;-1.86;100.00;100145.44;4974512;28;20204;-79
2024/03/14 01:12:16;;;;;;;14.30;6.63;;;;;;;-1.91;100.00;100137.00;4974211;28;20136;-79
2024/03/14 01:14:44;;;;;;;14.50;6.40;;;;;;;-1.88;100.00;100140.28;4993442;28;20556;-77
2024/03/14 01:17:10;;;;;;;15.60;6.80;;;;;;;-1.92;100.00;100143.94;5020399;28;20100;-79
2024/03/14 01:19:35;;;;;;;12.33;6.33;;;;;;;-1.95;100.00;100148.44;4999875;28;20080;-72
2024/03/14 01:22:03;;;;;;;13.83;6.27;;;;;;;-1.96;100.00;100147.63;5016349;28;20049;-72
2024/03/14 01:24:29;;;;;;;14.60;6.63;;;;;;;-1.94;100.00;100150.16;5001042;28;20377;-69
2024/03/14 01:26:55;;;;;;;14.37;6.90;;;;;;;-1.99;100.00;100128.69;5000510;28;20044;-73
2024/03/14 01:29:21;;;;;;;15.37;7.10;;;;;;;-2.07;100.00;100136.81;5015569;28;20063;-75
2024/03/14 01:31:48;;;;;;;16.70;6.80;;;;;;;-2.06;100.00;100135.06;5057935;28;20060;-76
2024/03/14 01:34:15;;;;;;;14.10;6.97;;;;;;;-2.17;100.00;100132.09;5024086;28;20397;-74
2024/03/14 01:36:42;;;;;;;15.17;6.97;;;;;;;-2.18;100.00;100146.84;5073370;28;20036;-74
2024/03/14 01:39:11;;;;;;;15.80;6.73;;;;;;;-2.21;100.00;100136.56;5023852;28;20608;-73
2024/03/14 01:41:38;;;;;;;13.10;6.87;;;;;;;-2.22;100.00;100136.66;5040586;28;20498;-72
2024/03/14 01:44:04;;;;;;;18.70;8.13;;;;;;;-2.29;100.00;100132.63;5040356;28;20052;-73
2024/03/14 01:46:31;;;;;;;13.63;7.23;;;;;;;-2.28;100.00;100129.97;5022589;28;20482;-69
2024/03/14 01:48:59;;;;;;;17.50;7.90;;;;;;;-2.28;100.00;100119.56;5055467;28;20040;-74
2024/03/14 01:51:28;;;;;;;19.60;8.07;;;;;;;-2.36;100.00;100119.03;5071392;28;20139;-73
2024/03/14 01:53:55;;;;;;;16.25;7.85;;;;;;;-2.40;100.00;100116.63;5050463;28;20479;-73
2024/03/14 01:56:21;;;;;;;21.37;8.80;;;;;;;-2.42;100.00;100124.50;4991520;28;20041;-73
2024/03/14 01:58:49;;;;;;;15.47;7.70;;;;;;;-2.42;100.00;100115.84;4998134;28;20091;-72
2024/03/14 02:01:15;;;;;;;17.97;8.30;;;;;;;-2.47;100.00;100123.84;4998616;28;20049;-73
2024/03/14 02:03:42;;;;;;;18.37;7.60;;;;;;;-2.42;100.00;100115.84;5015742;28;20132;-73
2024/03/14 02:06:20;;;;;;;19.77;8.23;;;;;;;-2.37;100.00;100114.72;4998731;28;20072;-74
2024/03/14 02:08:47;;;;;;;18.43;8.03;;;;;;;-2.46;100.00;100116.91;5015573;28;20483;-71
2024/03/14 02:11:18;;;;;;;17.53;8.30;;;;;;;-2.47;100.00;100113.44;4983277;28;20045;-71
2024/03/14 02:13:45;;;;;;;20.20;9.33;;;;;;;-2.51;100.00;100108.44;4982771;28;20049;-71
2024/03/14 02:16:11;;;;;;;18.87;8.47;;;;;;;-2.52;100.00;100118.00;5001604;28;20053;-73
2024/03/14 02:18:57;;;;;;;19.47;9.13;;;;;;;-2.58;100.00;100117.41;4991975;28;20049;-74
2024/03/14 02:21:23;;;;;;;18.30;8.37;;;;;;;-2.56;100.00;100118.19;4983800;28;20107;-75
2024/03/14 02:23:49;;;;;;;19.17;8.77;;;;;;;-2.59;100.00;100110.50;4999609;28;20135;-79
2024/03/14 02:26:14;;;;;;;19.53;8.23;;;;;;;-2.63;100.00;100107.19;4983293;28;20119;-79
2024/03/14 02:28:40;;;;;;;20.33;8.63;;;;;;;-2.63;100.00;100114.16;4983042;28;20088;-78
2024/03/14 02:31:07;;;;;;;19.60;8.47;;;;;;;-2.60;100.00;100111.44;4982836;28;20080;-80
2024/03/14 02:33:33;;;;;;;17.27;8.80;;;;;;;-2.60;100.00;100107.06;4960778;28;20086;-81
2024/03/14 02:36:02;;;;;;;15.90;8.63;;;;;;;-2.54;100.00;100116.38;4977094;28;20050;-77
2024/03/14 02:38:33;;;;;;;17.17;8.53;;;;;;;-2.62;100.00;100108.03;4992154;28;20450;-79
2024/03/14 02:41:01;;;;;;;16.47;8.27;;;;;;;-2.64;100.00;100110.72;5000179;28;20046;-77
2024/03/14 02:43:29;;;;;;;17.50;7.93;;;;;;;-2.67;100.00;100120.38;4976202;28;20058;-79
2024/03/14 02:45:59;;;;;;;17.73;8.33;;;;;;;-2.61;100.00;100109.72;4992162;28;20081;-80
2024/03/14 02:48:25;;;;;;;21.43;8.87;;;;;;;-2.65;100.00;100103.84;4965207;28;20059;-76
2024/03/14 02:50:55;;;;;;;18.93;8.47;;;;;;;-2.67;100.00;100113.44;4937274;29;20061;-75
2024/03/14 02:53:21;;;;;;;22.00;9.17;;;;;;;-2.71;100.00;100111.03;4906173;29;20051;-76
2024/03/14 02:55:55;;;;;;;16.90;8.20;;;;;;;-2.67;100.00;100107.38;4938709;29;20996;-79
2024/03/14 02:58:21;;;;;;;18.30;8.30;;;;;;;-2.71;100.00;100118.84;4908917;29;20114;-79
2024/03/14 03:00:48;;;;;;;17.70;8.63;;;;;;;-2.72;100.00;100101.56;4913976;29;20059;-77
2024/03/14 03:03:17;;;;;;;22.43;10.13;;;;;;;-2.72;100.00;100111.97;4908610;29;20113;-72
2024/03/14 03:05:43;;;;;;;19.80;9.47;;;;;;;-2.72;100.00;100104.16;4924856;29;20051;-76
2024/03/14 03:08:09;;;;;;;20.00;8.97;;;;;;;-2.72;100.00;100104.16;4954601;28;20058;-73
2024/03/14 03:10:36;;;;;;;18.77;9.00;;;;;;;-2.76;100.00;100099.97;4937520;29;20050;-72
2024/03/14 03:13:06;;;;;;;19.43;8.27;;;;;;;-2.80;100.00;100111.44;4921755;29;20522;-76
2024/03/14 03:15:36;;;;;;;16.07;8.80;;;;;;;-2.74;100.00;100111.16;4955755;28;20055;-72
2024/03/14 03:18:05;;;;;;;21.65;9.38;;;;;;;-2.74;100.00;100118.97;4962992;28;20400;-72
2024/03/14 03:20:34;;;;;;;18.42;8.25;;;;;;;-2.74;100.00;100122.41;4958339;28;20050;-75
2024/03/14 03:23:08;;;;;;;19.70;8.73;;;;;;;-2.73;100.00;100120.66;4956919;28;20058;-68
2024/03/14 03:25:34;;;;;;;18.77;9.43;;;;;;;-2.73;100.00;100124.09;4956545;28;20073;-78
2024/03/14 03:28:13;;;;;;;18.87;9.67;;;;;;;-2.69;100.00;100128.25;4963424;28;20061;-76
2024/03/14 03:30:44;;;;;;;19.47;9.80;;;;;;;-2.71;100.00;100126.63;5016335;28;20049;-72
2024/03/14 03:33:16;;;;;;;21.67;9.10;;;;;;;-2.75;100.00;100110.31;4965660;28;20077;-74
2024/03/14 03:35:47;;;;;;;20.23;10.27;;;;;;;-2.70;100.00;100115.31;4999163;28;20060;-74
2024/03/14 03:38:13;;;;;;;22.57;9.77;;;;;;;-2.80;100.00;100114.03;4997994;28;20419;-75
2024/03/14 03:40:44;;;;;;;22.33;9.70;;;;;;;-2.78;100.00;100107.03;4998767;28;20098;-74
2024/03/14 03:43:14;;;;;;;19.70;9.68;;;;;;;-2.81;100.00;100109.72;4982504;28;20566;-74
2024/03/14 03:45:42;;;;;;;23.27;9.53;;;;;;;-2.84;100.00;100107.25;4983429;28;20041;-75
2024/03/14 03:48:11;;;;;;;19.07;9.40;;;;;;;-2.86;100.00;100103.88;4982157;28;20045;-70
2024/03/14 03:50:37;;;;;;;24.50;11.20;;;;;;;-2.89;100.00;100096.22;4982148;28;20041;-75
2024/03/14 03:53:03;;;;;;;23.27;10.97;;;;;;;-2.91;100.00;100109.28;5022054;28;20115;-74
2024/03/14 03:55:31;;;;;;;22.47;10.17;;;;;;;-2.88;100.00;100106.56;4997181;28;20056;-75
2024/03/14 03:58:01;;;;;;;26.83;9.87;;;;;;;-2.93;100.00;100105.88;5020796;28;20163;-75
2024/03/14 04:00:33;;;;;;;21.47;10.23;;;;;;;-2.89;100.00;100106.63;5023669;28;20111;-74
2024/03/14 04:03:09;;;;;;;24.30;10.63;;;;;;;-2.90;100.00;100099.69;5019417;28;20451;-75
2024/03/14 04:05:48;;;;;;;20.33;10.07;;;;;;;-2.90;100.00;100103.16;5020406;28;20052;-74
2024/03/14 04:08:18;;;;;;;21.90;10.17;;;;;;;-2.87;100.00;100103.03;5002974;28;20045;-75
2024/03/14 04:10:44;;;;;;;21.93;10.00;;;;;;;-2.95;100.00;100096.47;4987417;28;20053;-74
2024/03/14 04:13:10;;;;;;;20.40;10.17;;;;;;;-2.94;100.00;100106.81;5018649;28;20045;-74
2024/03/14 04:15:36;;;;;;;23.47;10.73;;;;;;;-2.89;100.00;100104.00;4985071;28;20114;-73
2024/03/14 04:18:07;;;;;;;23.00;10.87;;;;;;;-2.88;100.00;100105.69;5017145;28;20057;-74
2024/03/14 04:20:37;;;;;;;27.73;11.03;;;;;;;-2.82;100.00;100105.44;4986252;28;20072;-75
2024/03/14 04:23:09;;;;;;;21.23;10.93;;;;;;;-2.80;100.00;100107.09;5035358;28;20773;-75
2024/03/14 04:25:41;;;;;;;23.57;11.13;;;;;;;-2.80;100.00;100101.03;5028665;28;20146;-75
2024/03/14 04:28:07;;;;;;;26.93;10.87;;;;;;;-2.86;100.00;100114.28;4992729;28;20050;-75
2024/03/14 04:30:35;;;;;;;23.20;10.87;;;;;;;-2.79;100.00;100105.31;4969428;28;20049;-74
2024/03/14 04:33:08;;;;;;;23.07;11.20;;;;;;;-2.82;100.00;100114.09;4995398;28;20046;-74
2024/03/14 04:35:37;;;;;;;21.70;10.00;;;;;;;-2.83;100.00;100114.16;4927756;29;20596;-74
2024/03/14 04:38:03;;;;;;;24.03;11.57;;;;;;;-2.81;100.00;100117.50;4924680;29;20070;-75
2024/03/14 04:40:29;;;;;;;26.63;13.00;;;;;;;-2.81;100.00;100110.56;4923392;29;20055;-73
2024/03/14 04:43:04;;;;;;;27.40;12.03;;;;;;;-2.83;100.00;100116.75;4906498;29;20106;-71
2024/03/14 04:45:32;;;;;;;23.67;12.07;;;;;;;-2.80;100.00;100114.03;4931938;29;20105;-69
2024/03/14 04:48:04;;;;;;;24.00;12.23;;;;;;;-2.86;100.00;100116.88;4908236;29;20407;-78
2024/03/14 04:50:31;;;;;;;30.07;13.43;;;;;;;-2.75;100.00;100112.09;4939727;29;20162;-76
2024/03/14 04:52:57;;;;;;;25.83;12.43;;;;;;;-2.87;100.00;100110.81;4943484;28;20059;-82
2024/03/14 04:55:27;;;;;;;30.07;12.47;;;;;;;-2.84;100.00;100102.91;4948328;28;20038;-79
2024/03/14 04:57:54;;;;;;;27.17;12.27;;;;;;;-2.80;100.00;100109.69;4935367;28;20521;-79
2024/03/14 05:00:20;;;;;;;25.50;12.17;;;;;;;-2.76;100.00;100110.38;4997989;28;20057;-78
2024/03/14 05:02:51;;;;;;;24.20;12.23;;;;;;;-2.74;100.00;100108.56;4942252;29;20109;-79
2024/03/14 05:05:23;;;;;;;25.30;11.97;;;;;;;-2.68;100.00;100123.91;4940531;29;20051;-77
2024/03/14 05:07:49;;;;;;;28.80;13.10;;;;;;;-2.65;100.00;100115.97;4940301;29;20066;-75
2024/03/14 05:10:18;;;;;;;24.67;12.70;;;;;;;-2.64;100.00;100121.13;4939031;29;20406;-79
2024/03/14 05:12:45;;;;;;;32.47;13.82;;;;;;;-2.58;100.00;100114.78;4932378;28;20056;-75
2024/03/14 05:15:14;;;;;;;26.07;13.03;;;;;;;-2.44;100.00;100118.50;4985908;28;20065;-73
2024/03/14 05:17:41;;;;;;;31.53;14.60;;;;;;;-2.48;100.00;100116.13;4961448;28;20084;-77
2024/03/14 05:20:10;;;;;;;27.87;13.43;;;;;;;-2.36;100.00;100123.38;4964828;28;20167;-79
2024/03/14 05:22:38;;;;;;;31.17;14.27;;;;;;;-2.33;100.00;100126.72;4968487;28;20050;-79
2024/03/14 05:25:09;;;;;;;24.07;12.30;;;;;;;-2.24;100.00;100130.66;4979920;28;20608;-77
2024/03/14 05:27:37;;;;;;;28.17;13.40;;;;;;;-2.18;100.00;100122.56;4962345;28;20168;-77
2024/03/14 05:30:07;;;;;;;27.83;12.53;;;;;;;-2.12;100.00;100122.31;4977745;28;20113;-78
2024/03/14 05:32:39;;;;;;;23.53;12.77;;;;;;;-2.07;100.00;100128.16;4956311;28;20134;-77
2024/03/14 05:35:06;;;;;;;24.67;12.07;;;;;;;-1.99;100.00;100119.13;4942973;28;20070;-80
2024/03/14 05:37:35;;;;;;;27.10;12.80;;;;;;;-1.86;100.00;100125.44;4959572;28;20043;-77
2024/03/14 05:40:00;;;;;;;29.60;14.30;;;;;;;-1.88;100.00;100129.03;4978228;28;20052;-79
2024/03/14 05:42:26;;;;;;;33.23;15.23;;;;;;;-1.88;100.00;100129.03;4984623;28;20128;-76
2024/03/14 05:44:57;;;;;;;28.83;13.35;;;;;;;-1.84;100.00;100131.44;4996096;28;20065;-76
2024/03/14 05:47:31;;;;;;;30.40;14.37;;;;;;;-1.80;100.00;100134.75;5001299;28;20125;-75
2024/03/14 05:50:10;;;;;;;28.13;14.20;;;;;;;-1.75;100.00;100127.56;4962304;28;20054;-73
2024/03/14 05:55:47;;;;;;;31.50;14.67;;;;;;;-1.74;100.00;100122.28;4955444;28;20050;-80
2024/03/14 05:58:13;;;;;;;32.95;14.05;;;;;;;-1.63;100.00;100132.25;4993830;28;20481;-78
2024/03/14 06:00:44;;;;;;;31.33;15.30;;;;;;;-1.52;100.00;100137.78;4945560;28;20050;-80
2024/03/14 06:03:15;;;;;;;30.63;15.50;;;;;;;-1.50;100.00;100135.94;4947160;28;20050;-78
2024/03/14 06:05:42;;;;;;;29.50;14.27;;;;;;;-1.41;100.00;100140.72;4960464;28;20054;-77
2024/03/14 06:08:08;;;;;;;31.07;15.07;;;;;;;-1.31;100.00;100141.16;4960948;28;20042;-79
2024/03/14 06:10:33;;;;;;;31.33;15.63;;;;;;;-1.30;100.00;100138.47;4961124;28;20058;-78
2024/03/14 06:13:03;;;;;;;35.97;15.13;;;;;;;-1.26;100.00;100134.78;4992582;28;20050;-73
2024/03/14 06:15:30;;;;;;;28.93;14.73;;;;;;;-1.22;100.00;100130.28;4977006;28;20093;-74
2024/03/14 06:17:56;;;;;;;31.13;15.37;;;;;;;-1.13;100.00;100130.72;4945161;28;20445;-74
2024/03/14 06:20:24;;;;;;;28.97;14.03;;;;;;;-0.94;100.00;100123.69;4971304;28;20088;-73
2024/03/14 06:22:50;;;;;;;29.67;14.77;;;;;;;-0.80;100.00;100123.03;5043201;28;20053;-74
2024/03/14 06:25:17;;;;;;;28.73;14.23;;;;;;;-0.68;100.00;100132.84;5039508;28;20037;-75
2024/03/14 06:27:44;;;;;;;28.20;14.77;;;;;;;-0.66;100.00;100131.84;5057210;28;20044;-75
2024/03/14 06:30:12;;;;;;;32.93;16.00;;;;;;;-0.69;100.00;100121.56;5039269;28;20083;-76
2024/03/14 06:32:39;;;;;;;31.23;14.37;;;;;;;-0.50;100.00;100137.13;5056521;28;20458;-76
2024/03/14 06:35:11;;;;;;;29.30;14.27;;;;;;;-0.48;100.00;100119.66;5040351;28;20040;-75
2024/03/14 06:37:46;;;;;;;31.53;14.37;;;;;;;-0.35;100.00;100129.38;5025498;28;20078;-77
2024/03/14 06:40:17;;;;;;;27.97;14.33;;;;;;;-0.24;100.00;100145.34;5043643;28;20064;-80
2024/03/14 06:42:45;;;;;;;;;;;;;;;0.02;100.00;100124.88;5057501;28;20045;-76
2024/03/14 06:45:13;;;;;;;28.37;13.80;;;;;;;0.02;100.00;100135.34;5073386;28;19924;-77
2024/03/14 06:47:40;;;;;;;26.40;14.00;;;;;;;0.07;100.00;100125.47;5023302;28;20051;-76
2024/03/14 06:50:12;;;;;;;32.65;14.05;;;;;;;0.13;100.00;100128.59;5031577;28;20057;-74
2024/03/14 06:52:39;;;;;;;30.63;14.20;;;;;;;0.16;100.00;100117.16;5015022;28;20045;-75
2024/03/14 06:55:09;;;;;;;31.23;13.17;;;;;;;0.22;100.00;100114.19;4983262;28;20350;-76
2024/03/14 06:57:40;;;;;;;30.67;14.40;;;;;;;0.50;100.00;100127.47;4983940;28;20152;-75
2024/03/14 07:00:16;;;;;;;27.60;13.70;;;;;;;0.56;100.00;100122.75;5015641;28;20095;-75
2024/03/14 07:02:44;;;;;;;27.30;12.50;;;;;;;0.61;100.00;100120.75;4973778;28;20149;-75
2024/03/14 07:05:24;;;;;;;27.33;12.70;;;;;;;0.80;100.00;100120.59;4976689;28;20504;-74
2024/03/14 07:07:53;;;;;;;32.87;13.83;;;;;;;0.94;100.00;100123.28;4977467;28;20061;-76
2024/03/14 07:10:22;;;;;;;29.13;13.50;;;;;;;1.08;100.00;100120.69;4976523;28;20090;-75
2024/03/14 07:13:18;;;;;;;27.97;12.83;;;;;;;1.33;100.00;100119.22;4979691;28;20050;-75
2024/03/14 07:15:47;;;;;;;27.60;13.00;;;;;;;1.48;100.00;100130.56;4924184;29;20059;-76
2024/03/14 07:18:16;;;;;;;29.10;13.00;;;;;;;1.61;100.00;100118.44;4922400;29;20075;-76
2024/03/14 07:20:45;;;;;;;25.17;12.73;;;;;;;2.01;100.00;100125.63;4918994;28;20089;-75
2024/03/14 07:23:15;;;;;;;26.40;12.27;;;;;;;2.29;100.00;100124.78;4992092;28;20066;-75
2024/03/14 07:25:42;;;;;;;26.07;13.20;;;;;;;2.54;100.00;100133.63;4959182;28;20050;-75
2024/03/14 07:28:21;;;;;;;25.93;13.73;;;;;;;3.04;100.00;100112.06;4992016;28;20491;-76
2024/03/14 07:30:55;;;;;;;28.60;14.23;;;;;;;4.86;100.00;100118.63;4960436;28;20135;-76
2024/03/14 07:33:26;;;;;;;25.00;13.03;;;;;;;7.39;82.09;100116.41;4976442;28;20057;-76
2024/03/14 07:35:54;;;;;;;23.60;13.43;;;;;;;9.45;65.54;100109.69;4999380;28;20065;-77
2024/03/14 07:38:27;;;;;;;24.95;12.20;;;;;;;11.30;54.47;100121.06;4921823;29;20145;-75
2024/03/14 07:41:04;;;;;;;26.40;12.38;;;;;;;12.77;45.25;100110.38;4940240;29;20059;-76
2024/03/14 07:43:34;;;;;;;20.65;11.27;;;;;;;14.05;40.35;100112.44;4953906;29;20055;-76
2024/03/14 07:46:27;;;;;;;16.33;10.48;;;;;;;15.65;36.18;100116.34;4945211;28;20065;-77
2024/03/14 07:48:53;;;;;;;21.03;11.63;;;;;;;16.32;32.97;100095.78;4952466;29;20047;-76
2024/03/14 07:51:19;;;;;;;19.90;11.05;;;;;;;17.06;31.02;100100.97;4920919;29;20299;-77
2024/03/14 07:53:49;;;;;;;20.90;11.57;;;;;;;18.43;28.81;100105.81;4953496;29;20102;-78
2024/03/14 07:56:21;;;;;;;20.73;10.98;;;;;;;18.45;26.74;100097.59;4894320;29;20151;-77
2024/03/14 07:58:53;;;;;;;16.15;9.52;;;;;;;18.63;27.09;100099.75;4895552;29;20646;-78
2024/03/14 08:01:19;;;;;;;16.20;10.38;;;;;;;18.88;25.16;100099.03;4877502;29;20097;-76
2024/03/14 08:03:52;;;;;;;15.88;9.40;;;;;;;19.37;25.76;100096.16;4845883;29;20155;-76
2024/03/14 08:06:24;;;;;;;16.17;10.10;;;;;;;19.33;24.75;100111.88;4843528;29;20140;-75
2024/03/14 08:08:55;;;;;;;17.88;10.55;;;;;;;18.85;24.97;100098.63;4830352;29;20072;-77
2024/03/14 08:11:22;;;;;;;17.50;10.55;;;;;;;18.85;24.35;100099.44;4823324;29;20058;-76
2024/03/14 08:13:58;;;;;;;16.00;10.73;;;;;;;19.29;24.43;100097.19;4833223;29;20047;-78
2024/03/14 08:16:27;;;;;;;16.92;10.52;;;;;;;19.66;23.95;100096.66;4835415;29;20083;-76
2024/03/14 08:18:56;;;;;;;16.48;9.90;;;;;;;20.21;23.25;100081.94;4848952;29;20054;-77
2024/03/14 08:21:29;;;;;;;16.83;10.77;;;;;;;21.17;22.73;100100.81;4860886;29;20632;-78
2024/03/14 08:24:09;;;;;;;20.92;11.63;;;;;;;21.75;21.61;100090.75;4838333;29;20095;-78
2024/03/14 08:26:37;;;;;;;16.13;11.30;;;;;;;21.72;20.95;100093.84;4811431;29;20054;-79
2024/03/14 08:29:05;;;;;;;16.00;10.23;;;;;;;21.04;21.42;100094.63;4865114;29;20076;-79
2024/03/14 08:31:31;;;;;;;15.02;9.68;;;;;;;21.06;21.47;100084.47;4883354;29;20153;-78
2024/03/14 08:34:08;;;;;;;;;;;;;;;20.54;21.19;100093.53;4898094;29;20052;-79
2024/03/14 08:36:43;;;;;;;14.10;9.85;;;;;;;20.23;21.62;100082.59;4919270;29;20270;-79
2024/03/14 08:39:22;;;;;;;15.07;9.65;;;;;;;19.54;22.08;100078.59;4918152;29;20522;-78
2024/03/14 08:41:50;;;;;;;15.25;9.80;;;;;;;19.50;21.88;100083.53;4866817;29;20057;-79
2024/03/14 08:44:20;;;;;;;13.95;8.32;;;;;;;20.34;21.75;100079.25;4939611;28;20048;-77
2024/03/14 08:46:55;;;;;;;14.38;9.18;;;;;;;20.01;21.78;100081.94;4905835;29;20054;-78
2024/03/14 08:49:23;;;;;;;12.65;8.80;;;;;;;20.27;21.75;100074.88;4915827;29;20058;-79
2024/03/14 08:51:55;;;;;;;11.85;8.68;;;;;;;20.12;20.84;100099.34;4899602;29;20059;-78
2024/03/14 08:54:33;;;;;;;17.27;9.27;;;;;;;19.37;21.19;100088.88;4900212;29;20051;-79
2024/03/14 08:57:01;;;;;;;12.82;8.50;;;;;;;19.43;21.73;100077.31;4932402;28;20054;-80
2024/03/14 08:59:29;;;;;;;13.32;8.18;;;;;;;20.52;21.09;100078.56;4924549;28;20556;-78
2024/03/14 09:01:55;;;;;;;13.65;8.35;;;;;;;21.42;20.42;100090.91;4908894;28;20047;-77
2024/03/14 09:04:23;;;;;;;11.40;8.38;;;;;;;21.32;19.61;100087.88;4956593;28;20086;-82
2024/03/14 09:06:53;;;;;;;11.43;7.85;;;;;;;20.96;20.71;100082.19;4956076;28;20046;-79
2024/03/14 09:09:26;;;;;;;10.93;8.40;;;;;;;21.04;20.33;100081.13;4925022;28;20149;-80
2024/03/14 09:12:08;;;;;;;14.43;8.55;;;;;;;20.74;20.59;100082.69;4961369;28;20149;-79
2024/03/14 09:14:36;;;;;;;13.38;7.85;;;;;;;20.26;21.05;100078.63;5011449;28;20460;-81
2024/03/14 09:17:04;;;;;;;13.25;8.63;;;;;;;19.82;21.32;100077.34;4978019;28;20050;-81
2024/03/14 09:19:32;;;;;;;14.27;7.95;;;;;;;19.89;21.29;100066.59;4996473;28;20042;-80
2024/03/14 09:21:58;;;;;;;10.93;7.57;;;;;;;20.01;21.15;100068.47;4981999;28;20133;-80
2024/03/14 09:24:25;;;;;;;11.20;8.40;;;;;;;19.84;20.85;100077.16;4983432;28;20165;-80
2024/03/14 09:26:56;;;;;;;10.95;7.53;;;;;;;19.32;21.21;100067.16;5001302;28;20057;-77
2024/03/14 09:29:23;;;;;;;13.93;7.75;;;;;;;19.36;21.53;100051.38;5008023;28;20053;-80
2024/03/14 09:31:55;;;;;;;11.57;8.57;;;;;;;19.37;21.43;100053.88;5023910;28;20070;-80
2024/03/14 09:34:24;;;;;;;17.00;7.53;;;;;;;19.85;21.00;100055.38;5036998;28;20053;-80
2024/03/14 09:36:56;;;;;;;11.85;7.57;;;;;;;20.00;21.06;100058.69;5037314;28;20068;-80
2024/03/14 09:39:23;;;;;;;9.27;7.05;;;;;;;20.73;20.12;100065.63;5033896;28;20050;-80
2024/03/14 09:41:54;;;;;;;;;;;;;;;20.88;20.28;100052.69;4978997;28;20078;-80
2024/03/14 09:44:23;;;;;;;8.20;6.65;;;;;;;20.31;20.41;100065.34;4963093;28;19925;-80
2024/03/14 09:46:55;;;;;;;12.13;7.40;;;;;;;20.68;20.13;100067.34;4964709;28;20081;-81
2024/03/14 09:49:25;;;;;;;12.07;7.22;;;;;;;20.97;19.62;100064.94;4964781;28;20062;-82
2024/03/14 09:51:53;;;;;;;8.27;6.35;;;;;;;20.86;19.72;100053.97;4962016;28;20108;-81
2024/03/14 09:54:24;;;;;;;10.18;6.65;;;;;;;21.07;19.55;100067.19;4962004;28;20127;-81
2024/03/14 09:56:52;;;;;;;;;;;;;;;20.92;19.71;100055.81;4946775;28;20081;-80
2024/03/14 09:59:20;;;;;;;7.47;6.45;;;;;;;21.28;19.48;100069.59;4978388;28;20292;-79
2024/03/14 10:01:46;;;;;;;8.23;6.65;;;;;;;21.20;19.21;100056.34;4982660;28;20093;-81
2024/03/14 10:04:14;;;;;;;8.50;6.55;;;;;;;21.07;19.35;100056.38;4955419;28;20144;-79
2024/03/14 10:06:42;;;;;;;8.90;6.55;;;;;;;21.15;19.12;100053.44;4949331;28;20054;-81
2024/03/14 10:09:29;;;;;;;8.43;6.43;;;;;;;21.88;18.39;100041.94;4964523;28;20587;-80
2024/03/14 10:11:58;;;;;;;9.52;6.45;;;;;;;21.86;18.45;100054.03;4925496;28;20050;-81
2024/03/14 10:14:25;;;;;;;8.52;6.95;;;;;;;22.27;18.36;100044.28;4938630;28;20058;-79
2024/03/14 10:16:51;;;;;;;8.30;7.22;;;;;;;22.25;18.04;100046.38;4922505;29;20487;-80
2024/03/14 10:19:17;;;;;;;9.57;7.22;;;;;;;22.03;18.04;100047.88;4932694;28;20051;-80
2024/03/14 10:21:46;;;;;;;10.43;6.35;;;;;;;21.98;18.30;100046.84;4973920;28;20066;-79
2024/03/14 10:24:17;;;;;;;9.93;6.90;;;;;;;21.34;18.32;100026.31;4989826;28;20090;-81
2024/03/14 10:26:48;;;;;;;11.52;6.70;;;;;;;21.77;18.43;100039.13;4961225;28;20085;-82
2024/03/14 10:29:17;;;;;;;10.23;6.97;;;;;;;21.87;18.00;100032.19;4977985;28;20483;-80
2024/03/14 10:31:43;;;;;;;9.63;6.50;;;;;;;22.45;17.86;100038.91;4974556;28;20057;-81
2024/03/14 10:34:14;;;;;;;8.82;6.60;;;;;;;22.82;17.66;100037.03;4956920;28;20059;-80
2024/03/14 10:36:42;;;;;;;11.68;6.47;;;;;;;22.63;17.59;100030.00;4961928;28;20070;-78
2024/03/14 10:39:17;;;;;;;10.63;7.20;;;;;;;22.64;17.61;100031.63;4925822;28;20046;-79
2024/03/14 10:41:49;;;;;;;8.00;6.28;;;;;;;23.15;17.40;100016.59;4896890;29;20392;-80
2024/03/14 10:44:24;;;;;;;10.20;5.55;;;;;;;24.33;16.84;100014.69;4866669;29;20428;-77
2024/03/14 10:46:51;;;;;;;9.10;6.45;;;;;;;24.29;16.45;100018.94;4900779;29;20828;-78
2024/03/14 10:49:19;;;;;;;9.38;5.85;;;;;;;24.16;16.13;100008.31;4872507;29;20056;-77
2024/03/14 10:51:50;;;;;;;8.95;6.05;;;;;;;23.44;16.25;100024.97;4902363;29;20099;-79
2024/03/14 10:54:22;;;;;;;9.55;7.15;;;;;;;23.15;16.81;100021.19;4901075;29;20052;-79
2024/03/14 10:56:49;;;;;;;8.38;6.22;;;;;;;22.82;16.79;100010.78;4885872;29;20052;-79
2024/03/14 10:59:16;;;;;;;7.47;5.93;;;;;;;22.50;16.87;100008.44;4918668;29;20139;-79
2024/03/14 11:01:53;;;;;;;9.02;6.00;;;;;;;22.03;16.96;100006.44;4905326;29;20151;-79
2024/03/14 11:04:24;;;;;;;9.50;6.18;;;;;;;22.37;17.51;99995.88;4901455;29;20103;-79
2024/03/14 11:06:52;;;;;;;10.82;6.28;;;;;;;22.41;17.09;99994.38;4863211;29;20049;-79
2024/03/14 11:09:26;;;;;;;7.88;5.90;;;;;;;22.28;17.13;99997.22;4846869;29;20389;-79
2024/03/14 11:11:57;;;;;;;10.95;6.63;;;;;;;21.56;17.83;100013.25;4843177;29;20534;-79
2024/03/14 11:14:36;;;;;;;9.20;6.57;;;;;;;21.85;17.71;99988.28;4843564;29;20079;-80
2024/03/14 11:17:09;;;;;;;10.10;7.22;;;;;;;21.45;17.80;99984.22;4829078;29;20062;-78
2024/03/14 11:19:39;;;;;;;10.90;6.28;;;;;;;21.58;18.05;99984.16;4843350;29;20052;-79
2024/03/14 11:22:11;;;;;;;14.93;6.75;;;;;;;21.25;17.78;99988.97;4843579;29;20545;-78
2024/03/14 11:24:39;;;;;;;13.30;7.22;;;;;;;21.18;17.86;99983.63;4829288;29;20122;-79